Guarulhos - Governador Andre Franco Montoro International Airport

SBGR | GRU

Sao Paulo , Sao-Paulo , Brazil

Thursday, October 24th, 2019 | 01:54

Weather

SBGR 240400Z 15005KT 9999 OVC013 18/17 Q1018

Charts

1 Available

Gates

196 Available

Runways

2 Available

Events

No events for this airport


New event